sensor_id;sensor_type;location;lat;lon;timestamp;pressure;altitude;pressure_sealevel;temperature;humidity
64687;BME280;51113;53.646;-113.674;2023-12-20T00:01:51;92893.19;;;-2.73;78.12
64687;BME280;51113;53.646;-113.674;2023-12-20T00:04:19;92891.03;;;-2.76;78.48
64687;BME280;51113;53.646;-113.674;2023-12-20T00:06:48;92890.44;;;-2.78;79.06
64687;BME280;51113;53.646;-113.674;2023-12-20T00:09:17;92894.94;;;-2.73;78.06
64687;BME280;51113;53.646;-113.674;2023-12-20T00:11:46;92892.00;;;-2.77;78.17
64687;BME280;51113;53.646;-113.674;2023-12-20T00:14:14;92897.88;;;-2.83;79.12
64687;BME280;51113;53.646;-113.674;2023-12-20T00:16:43;92900.41;;;-2.83;79.04
64687;BME280;51113;53.646;-113.674;2023-12-20T00:19:12;92896.13;;;-2.82;79.15
64687;BME280;51113;53.646;-113.674;2023-12-20T00:21:40;92894.38;;;-2.82;78.87
64687;BME280;51113;53.646;-113.674;2023-12-20T00:24:09;92886.75;;;-2.82;78.63
64687;BME280;51113;53.646;-113.674;2023-12-20T00:26:38;92889.09;;;-2.80;78.08
64687;BME280;51113;53.646;-113.674;2023-12-20T00:29:07;92879.91;;;-2.81;78.56
64687;BME280;51113;53.646;-113.674;2023-12-20T00:31:35;92891.81;;;-2.82;78.84
64687;BME280;51113;53.646;-113.674;2023-12-20T00:34:04;92888.50;;;-2.82;78.92
64687;BME280;51113;53.646;-113.674;2023-12-20T00:36:33;92891.03;;;-2.76;78.13
64687;BME280;51113;53.646;-113.674;2023-12-20T00:39:02;92890.84;;;-2.81;79.36
64687;BME280;51113;53.646;-113.674;2023-12-20T00:41:31;92888.09;;;-2.79;78.94
64687;BME280;51113;53.646;-113.674;2023-12-20T00:44:00;92897.88;;;-2.83;79.71
64687;BME280;51113;53.646;-113.674;2023-12-20T00:46:29;92904.91;;;-2.85;79.14
64687;BME280;51113;53.646;-113.674;2023-12-20T00:48:57;92902.38;;;-2.85;78.58
64687;BME280;51113;53.646;-113.674;2023-12-20T00:51:26;92909.63;;;-2.88;80.03
64687;BME280;51113;53.646;-113.674;2023-12-20T00:53:55;92901.00;;;-2.87;78.94
64687;BME280;51113;53.646;-113.674;2023-12-20T00:56:23;92906.09;;;-2.81;79.64
64687;BME280;51113;53.646;-113.674;2023-12-20T00:58:52;92910.00;;;-2.85;79.22
64687;BME280;51113;53.646;-113.674;2023-12-20T01:01:21;92910.00;;;-2.85;79.32
64687;BME280;51113;53.646;-113.674;2023-12-20T01:03:50;92911.94;;;-2.80;79.40
64687;BME280;51113;53.646;-113.674;2023-12-20T01:06:19;92914.09;;;-2.77;79.16
64687;BME280;51113;53.646;-113.674;2023-12-20T01:08:48;92902.75;;;-2.75;79.24
64687;BME280;51113;53.646;-113.674;2023-12-20T01:11:17;92899.06;;;-2.79;79.17
64687;BME280;51113;53.646;-113.674;2023-12-20T01:13:45;92905.88;;;-2.73;79.15
64687;BME280;51113;53.646;-113.674;2023-12-20T01:16:14;92895.53;;;-2.78;79.48
64687;BME280;51113;53.646;-113.674;2023-12-20T01:18:42;92893.16;;;-2.66;79.78
64687;BME280;51113;53.646;-113.674;2023-12-20T01:21:11;92893.75;;;-2.71;80.04
64687;BME280;51113;53.646;-113.674;2023-12-20T01:23:39;92899.03;;;-2.72;79.75
64687;BME280;51113;53.646;-113.674;2023-12-20T01:26:09;92889.47;;;-2.70;79.19
64687;BME280;51113;53.646;-113.674;2023-12-20T01:28:38;92883.97;;;-2.67;79.37
64687;BME280;51113;53.646;-113.674;2023-12-20T01:31:08;92879.47;;;-2.58;79.01
64687;BME280;51113;53.646;-113.674;2023-12-20T01:33:36;92872.81;;;-2.59;78.76
64687;BME280;51113;53.646;-113.674;2023-12-20T01:36:05;92876.91;;;-2.58;79.20
64687;BME280;51113;53.646;-113.674;2023-12-20T01:38:34;92879.84;;;-2.55;78.92
64687;BME280;51113;53.646;-113.674;2023-12-20T01:41:03;92894.34;;;-2.69;78.98
64687;BME280;51113;53.646;-113.674;2023-12-20T01:43:32;92888.88;;;-2.72;79.42
64687;BME280;51113;53.646;-113.674;2023-12-20T01:46:14;92887.31;;;-2.73;78.65
64687;BME280;51113;53.646;-113.674;2023-12-20T01:48:44;92872.47;;;-2.70;78.33
64687;BME280;51113;53.646;-113.674;2023-12-20T01:51:13;92865.44;;;-2.81;79.36
64687;BME280;51113;53.646;-113.674;2023-12-20T01:53:42;92869.50;;;-2.67;78.59
64687;BME280;51113;53.646;-113.674;2023-12-20T01:56:12;92868.53;;;-2.66;78.21
64687;BME280;51113;53.646;-113.674;2023-12-20T01:58:44;92862.69;;;-2.66;79.07
64687;BME280;51113;53.646;-113.674;2023-12-20T02:01:14;92861.31;;;-2.69;79.63
64687;BME280;51113;53.646;-113.674;2023-12-20T02:03:43;92863.47;;;-2.66;79.05
64687;BME280;51113;53.646;-113.674;2023-12-20T02:06:12;92846.47;;;-2.72;79.89
64687;BME280;51113;53.646;-113.674;2023-12-20T02:08:41;92856.81;;;-2.67;79.04
64687;BME280;51113;53.646;-113.674;2023-12-20T02:11:10;92843.72;;;-2.64;79.05
64687;BME280;51113;53.646;-113.674;2023-12-20T02:13:39;92840.38;;;-2.64;78.45
64687;BME280;51113;53.646;-113.674;2023-12-20T02:16:07;92846.66;;;-2.67;78.77
64687;BME280;51113;53.646;-113.674;2023-12-20T02:18:36;92833.16;;;-2.67;78.60
64687;BME280;51113;53.646;-113.674;2023-12-20T02:21:05;92835.91;;;-2.69;78.24
64687;BME280;51113;53.646;-113.674;2023-12-20T02:23:34;92826.94;;;-2.71;78.95
64687;BME280;51113;53.646;-113.674;2023-12-20T02:26:04;92822.63;;;-2.71;78.96
64687;BME280;51113;53.646;-113.674;2023-12-20T02:28:34;92822.03;;;-2.66;78.64
64687;BME280;51113;53.646;-113.674;2023-12-20T02:31:02;92819.31;;;-2.71;78.83
64687;BME280;51113;53.646;-113.674;2023-12-20T02:33:31;92818.53;;;-2.72;78.87
64687;BME280;51113;53.646;-113.674;2023-12-20T02:36:00;92808.97;;;-2.76;78.60
64687;BME280;51113;53.646;-113.674;2023-12-20T02:38:28;92812.50;;;-2.77;79.26
64687;BME280;51113;53.646;-113.674;2023-12-20T02:40:57;92805.84;;;-2.78;79.38
64687;BME280;51113;53.646;-113.674;2023-12-20T02:43:26;92812.66;;;-2.72;78.47
64687;BME280;51113;53.646;-113.674;2023-12-20T02:45:54;92811.09;;;-2.73;79.16
64687;BME280;51113;53.646;-113.674;2023-12-20T02:48:23;92812.47;;;-2.71;78.95
64687;BME280;51113;53.646;-113.674;2023-12-20T02:50:52;92815.00;;;-2.71;78.86
64687;BME280;51113;53.646;-113.674;2023-12-20T02:53:21;92816.56;;;-2.70;79.09
64687;BME280;51113;53.646;-113.674;2023-12-20T02:55:49;92818.13;;;-2.69;79.82
64687;BME280;51113;53.646;-113.674;2023-12-20T02:58:18;92816.34;;;-2.62;78.90
64687;BME280;51113;53.646;-113.674;2023-12-20T03:00:47;92816.53;;;-2.63;79.07
64687;BME280;51113;53.646;-113.674;2023-12-20T03:03:15;92815.56;;;-2.62;78.76
64687;BME280;51113;53.646;-113.674;2023-12-20T03:05:45;92813.59;;;-2.60;78.81
64687;BME280;51113;53.646;-113.674;2023-12-20T03:08:14;92804.22;;;-2.59;79.12
64687;BME280;51113;53.646;-113.674;2023-12-20T03:10:43;92793.06;;;-2.58;78.73
64687;BME280;51113;53.646;-113.674;2023-12-20T03:13:12;92799.72;;;-2.57;79.33
64687;BME280;51113;53.646;-113.674;2023-12-20T03:15:41;92790.91;;;-2.55;78.89
64687;BME280;51113;53.646;-113.674;2023-12-20T03:18:09;92790.91;;;-2.55;79.58
64687;BME280;51113;53.646;-113.674;2023-12-20T03:20:38;92783.88;;;-2.53;78.88
64687;BME280;51113;53.646;-113.674;2023-12-20T03:23:12;92783.09;;;-2.53;78.52
64687;BME280;51113;53.646;-113.674;2023-12-20T03:25:40;92789.31;;;-2.49;78.13
64687;BME280;51113;53.646;-113.674;2023-12-20T03:28:09;92790.09;;;-2.49;78.41
64687;BME280;51113;53.646;-113.674;2023-12-20T03:30:38;92786.59;;;-2.54;79.00
64687;BME280;51113;53.646;-113.674;2023-12-20T03:33:07;92778.19;;;-2.48;78.66
64687;BME280;51113;53.646;-113.674;2023-12-20T03:35:36;92773.69;;;-2.53;78.61
64687;BME280;51113;53.646;-113.674;2023-12-20T03:38:05;92772.50;;;-2.50;78.52
64687;BME280;51113;53.646;-113.674;2023-12-20T03:40:33;92771.53;;;-2.49;78.25
64687;BME280;51113;53.646;-113.674;2023-12-20T03:43:02;92773.09;;;-2.48;78.63
64687;BME280;51113;53.646;-113.674;2023-12-20T03:45:31;92775.84;;;-2.50;78.70
64687;BME280;51113;53.646;-113.674;2023-12-20T03:48:00;92777.19;;;-2.47;78.20
64687;BME280;51113;53.646;-113.674;2023-12-20T03:50:29;92772.88;;;-2.47;78.62
64687;BME280;51113;53.646;-113.674;2023-12-20T03:52:57;92775.84;;;-2.50;78.08
64687;BME280;51113;53.646;-113.674;2023-12-20T03:55:26;92774.06;;;-2.49;78.69
64687;BME280;51113;53.646;-113.674;2023-12-20T03:57:55;92764.88;;;-2.50;78.39
64687;BME280;51113;53.646;-113.674;2023-12-20T04:00:24;92769.00;;;-2.49;78.15
64687;BME280;51113;53.646;-113.674;2023-12-20T04:02:52;92766.03;;;-2.46;77.42
64687;BME280;51113;53.646;-113.674;2023-12-20T04:05:21;92757.84;;;-2.48;78.18
64687;BME280;51113;53.646;-113.674;2023-12-20T04:07:50;92761.56;;;-2.51;78.60
64687;BME280;51113;53.646;-113.674;2023-12-20T04:10:19;92767.06;;;-2.54;78.27
64687;BME280;51113;53.646;-113.674;2023-12-20T04:12:48;92773.91;;;-2.54;78.87
64687;BME280;51113;53.646;-113.674;2023-12-20T04:15:16;92784.66;;;-2.52;79.19
64687;BME280;51113;53.646;-113.674;2023-12-20T04:17:45;92776.06;;;-2.58;79.34
64687;BME280;51113;53.646;-113.674;2023-12-20T04:20:14;92779.56;;;-2.52;79.23
64687;BME280;51113;53.646;-113.674;2023-12-20T04:22:43;92782.09;;;-2.52;78.40
64687;BME280;51113;53.646;-113.674;2023-12-20T04:25:12;92770.78;;;-2.56;78.33
64687;BME280;51113;53.646;-113.674;2023-12-20T04:27:40;92769.81;;;-2.55;79.03
64687;BME280;51113;53.646;-113.674;2023-12-20T04:30:10;92776.44;;;-2.54;79.00
64687;BME280;51113;53.646;-113.674;2023-12-20T04:32:38;92766.69;;;-2.57;78.85
64687;BME280;51113;53.646;-113.674;2023-12-20T04:35:07;92770.00;;;-2.57;79.14
64687;BME280;51113;53.646;-113.674;2023-12-20T04:37:36;92759.63;;;-2.55;78.32
64687;BME280;51113;53.646;-113.674;2023-12-20T04:40:05;92759.84;;;-2.57;78.97
64687;BME280;51113;53.646;-113.674;2023-12-20T04:42:35;92774.31;;;-2.57;79.26
64687;BME280;51113;53.646;-113.674;2023-12-20T04:45:05;92773.91;;;-2.54;78.64
64687;BME280;51113;53.646;-113.674;2023-12-20T04:47:34;92766.69;;;-2.57;78.37
64687;BME280;51113;53.646;-113.674;2023-12-20T04:50:03;92727.31;;;-2.80;79.44
64687;BME280;51113;53.646;-113.674;2023-12-20T04:52:32;92753.63;;;-2.68;79.22
64687;BME280;51113;53.646;-113.674;2023-12-20T04:55:01;92758.34;;;-2.71;79.73
64687;BME280;51113;53.646;-113.674;2023-12-20T04:57:30;92752.88;;;-2.75;79.59
64687;BME280;51113;53.646;-113.674;2023-12-20T04:59:58;92750.53;;;-2.76;79.24
64687;BME280;51113;53.646;-113.674;2023-12-20T05:02:27;92753.50;;;-2.79;79.71
64687;BME280;51113;53.646;-113.674;2023-12-20T05:04:56;92750.56;;;-2.83;80.04
64687;BME280;51113;53.646;-113.674;2023-12-20T05:07:24;92763.09;;;-2.88;79.80
64687;BME280;51113;53.646;-113.674;2023-12-20T05:09:53;92754.72;;;-2.95;80.55
64687;BME280;51113;53.646;-113.674;2023-12-20T05:12:22;92747.09;;;-2.95;80.33
64687;BME280;51113;53.646;-113.674;2023-12-20T05:14:52;92741.25;;;-3.02;80.32
64687;BME280;51113;53.646;-113.674;2023-12-20T05:17:20;92736.75;;;-3.00;80.99
64687;BME280;51113;53.646;-113.674;2023-12-20T05:19:49;92741.44;;;-2.97;80.30
64687;BME280;51113;53.646;-113.674;2023-12-20T05:22:19;92744.75;;;-2.97;80.36
64687;BME280;51113;53.646;-113.674;2023-12-20T05:24:48;92735.75;;;-2.92;80.13
64687;BME280;51113;53.646;-113.674;2023-12-20T05:27:17;92732.84;;;-2.96;80.64
64687;BME280;51113;53.646;-113.674;2023-12-20T05:29:46;92731.06;;;-2.89;79.95
64687;BME280;51113;53.646;-113.674;2023-12-20T05:32:15;92729.91;;;-2.93;80.15
64687;BME280;51113;53.646;-113.674;2023-12-20T05:34:43;92723.44;;;-2.89;80.04
64687;BME280;51113;53.646;-113.674;2023-12-20T05:37:12;92720.13;;;-2.89;80.38
64687;BME280;51113;53.646;-113.674;2023-12-20T05:39:41;92720.31;;;-2.91;80.71
64687;BME280;51113;53.646;-113.674;2023-12-20T05:42:09;92716.81;;;-2.90;80.52
64687;BME280;51113;53.646;-113.674;2023-12-20T05:44:37;92722.09;;;-2.91;80.11
64687;BME280;51113;53.646;-113.674;2023-12-20T05:47:06;92713.31;;;-2.96;80.31
64687;BME280;51113;53.646;-113.674;2023-12-20T05:49:35;92725.59;;;-2.92;80.20
64687;BME280;51113;53.646;-113.674;2023-12-20T05:52:04;92736.13;;;-2.89;80.83
64687;BME280;51113;53.646;-113.674;2023-12-20T05:54:33;92729.50;;;-2.90;80.62
64687;BME280;51113;53.646;-113.674;2023-12-20T05:57:02;92730.84;;;-2.87;80.14
64687;BME280;51113;53.646;-113.674;2023-12-20T05:59:31;92730.47;;;-2.91;80.48
64687;BME280;51113;53.646;-113.674;2023-12-20T06:01:59;92735.72;;;-2.86;79.98
64687;BME280;51113;53.646;-113.674;2023-12-20T06:04:28;92737.28;;;-2.85;80.26
64687;BME280;51113;53.646;-113.674;2023-12-20T06:06:57;92737.28;;;-2.85;80.67
64687;BME280;51113;53.646;-113.674;2023-12-20T06:09:29;92723.66;;;-2.90;79.93
64687;BME280;51113;53.646;-113.674;2023-12-20T06:11:58;92730.84;;;-2.81;80.11
64687;BME280;51113;53.646;-113.674;2023-12-20T06:14:26;92712.69;;;-2.91;80.58
64687;BME280;51113;53.646;-113.674;2023-12-20T06:16:55;92709.97;;;-2.89;80.21
64687;BME280;51113;53.646;-113.674;2023-12-20T06:19:24;92712.31;;;-2.88;80.83
64687;BME280;51113;53.646;-113.674;2023-12-20T06:21:53;92719.31;;;-2.83;80.42
64687;BME280;51113;53.646;-113.674;2023-12-20T06:24:21;92725.94;;;-2.82;80.30
64687;BME280;51113;53.646;-113.674;2023-12-20T06:26:50;92729.47;;;-2.83;80.81
64687;BME280;51113;53.646;-113.674;2023-12-20T06:29:19;92730.47;;;-2.84;80.91
64687;BME280;51113;53.646;-113.674;2023-12-20T06:31:48;92723.81;;;-2.85;80.49
64687;BME280;51113;53.646;-113.674;2023-12-20T06:34:16;92726.16;;;-2.84;80.68
64687;BME280;51113;53.646;-113.674;2023-12-20T06:36:45;92716.00;;;-2.84;80.53
64687;BME280;51113;53.646;-113.674;2023-12-20T06:39:14;92711.91;;;-2.85;80.54
64687;BME280;51113;53.646;-113.674;2023-12-20T06:41:43;92711.91;;;-2.85;80.66
64687;BME280;51113;53.646;-113.674;2023-12-20T06:44:11;92716.19;;;-2.85;80.89
64687;BME280;51113;53.646;-113.674;2023-12-20T06:46:40;92710.34;;;-2.86;80.48
64687;BME280;51113;53.646;-113.674;2023-12-20T06:49:09;92712.88;;;-2.86;80.64
64687;BME280;51113;53.646;-113.674;2023-12-20T06:51:38;92704.88;;;-2.89;81.06
64687;BME280;51113;53.646;-113.674;2023-12-20T06:54:06;92698.66;;;-2.94;80.63
64687;BME280;51113;53.646;-113.674;2023-12-20T06:56:35;92706.66;;;-2.90;80.86
64687;BME280;51113;53.646;-113.674;2023-12-20T06:59:04;92712.69;;;-2.91;81.54
64687;BME280;51113;53.646;-113.674;2023-12-20T07:01:32;92703.31;;;-2.90;81.36
64687;BME280;51113;53.646;-113.674;2023-12-20T07:04:01;92700.41;;;-2.94;81.19
64687;BME280;51113;53.646;-113.674;2023-12-20T07:06:30;92699.84;;;-2.96;81.65
64687;BME280;51113;53.646;-113.674;2023-12-20T07:08:58;92707.44;;;-2.96;81.57
64687;BME280;51113;53.646;-113.674;2023-12-20T07:11:27;92700.81;;;-2.97;81.27
64687;BME280;51113;53.646;-113.674;2023-12-20T07:13:55;92700.84;;;-3.04;81.59
64687;BME280;51113;53.646;-113.674;2023-12-20T07:16:24;92696.94;;;-3.06;81.95
64687;BME280;51113;53.646;-113.674;2023-12-20T07:18:53;92700.47;;;-3.07;82.81
64687;BME280;51113;53.646;-113.674;2023-12-20T07:21:22;92695.97;;;-3.05;82.22
64687;BME280;51113;53.646;-113.674;2023-12-20T07:23:51;92694.00;;;-3.03;81.73
64687;BME280;51113;53.646;-113.674;2023-12-20T07:26:20;92683.28;;;-3.05;81.94
64687;BME280;51113;53.646;-113.674;2023-12-20T07:28:49;92667.13;;;-3.17;82.00
64687;BME280;51113;53.646;-113.674;2023-12-20T07:31:18;92670.94;;;-3.02;82.20
64687;BME280;51113;53.646;-113.674;2023-12-20T07:33:47;92659.25;;;-3.03;82.60
64687;BME280;51113;53.646;-113.674;2023-12-20T07:36:16;92660.41;;;-3.05;81.87
64687;BME280;51113;53.646;-113.674;2023-12-20T07:38:44;92664.16;;;-3.08;82.20
64687;BME280;51113;53.646;-113.674;2023-12-20T07:41:13;92667.47;;;-3.07;82.24
64687;BME280;51113;53.646;-113.674;2023-12-20T07:43:44;92669.63;;;-3.11;82.32
64687;BME280;51113;53.646;-113.674;2023-12-20T07:46:12;92690.34;;;-3.14;82.99
64687;BME280;51113;53.646;-113.674;2023-12-20T07:48:41;92694.63;;;-3.14;83.05
64687;BME280;51113;53.646;-113.674;2023-12-20T07:51:12;92697.56;;;-3.17;83.08
64687;BME280;51113;53.646;-113.674;2023-12-20T07:53:40;92709.31;;;-3.23;83.97
64687;BME280;51113;53.646;-113.674;2023-12-20T07:56:19;92712.22;;;-3.19;83.51
64687;BME280;51113;53.646;-113.674;2023-12-20T07:58:47;92718.47;;;-3.22;83.59
64687;BME280;51113;53.646;-113.674;2023-12-20T08:01:20;92704.44;;;-3.24;83.19
64687;BME280;51113;53.646;-113.674;2023-12-20T08:03:49;92701.53;;;-3.35;82.96
64687;BME280;51113;53.646;-113.674;2023-12-20T08:06:19;92712.84;;;-3.31;83.39
64687;BME280;51113;53.646;-113.674;2023-12-20T08:08:48;92707.75;;;-3.31;83.73
64687;BME280;51113;53.646;-113.674;2023-12-20T08:11:28;92709.31;;;-3.30;83.87
64687;BME280;51113;53.646;-113.674;2023-12-20T08:13:57;92706.41;;;-3.33;84.00
64687;BME280;51113;53.646;-113.674;2023-12-20T08:16:26;92708.97;;;-3.40;84.29
64687;BME280;51113;53.646;-113.674;2023-12-20T08:18:55;92703.88;;;-3.40;84.50
64687;BME280;51113;53.646;-113.674;2023-12-20T08:21:24;92714.63;;;-3.38;84.13
64687;BME280;51113;53.646;-113.674;2023-12-20T08:23:52;92712.66;;;-3.36;84.26
64687;BME280;51113;53.646;-113.674;2023-12-20T08:26:21;92712.84;;;-3.37;84.40
64687;BME280;51113;53.646;-113.674;2023-12-20T08:28:51;92712.47;;;-3.41;84.47
64687;BME280;51113;53.646;-113.674;2023-12-20T08:31:20;92707.41;;;-3.41;84.17
64687;BME280;51113;53.646;-113.674;2023-12-20T08:33:49;92697.06;;;-3.46;83.92
64687;BME280;51113;53.646;-113.674;2023-12-20T08:36:19;92690.25;;;-3.52;84.38
64687;BME280;51113;53.646;-113.674;2023-12-20T08:38:50;92689.66;;;-3.47;84.45
64687;BME280;51113;53.646;-113.674;2023-12-20T08:41:18;92686.53;;;-3.43;84.36
64687;BME280;51113;53.646;-113.674;2023-12-20T08:43:48;92684.38;;;-3.46;84.45
64687;BME280;51113;53.646;-113.674;2023-12-20T08:46:17;92691.41;;;-3.48;84.29
64687;BME280;51113;53.646;-113.674;2023-12-20T08:48:46;92698.44;;;-3.50;84.67
64687;BME280;51113;53.646;-113.674;2023-12-20T08:51:15;92697.66;;;-3.50;84.88
64687;BME280;51113;53.646;-113.674;2023-12-20T08:53:43;92694.56;;;-3.52;85.32
64687;BME280;51113;53.646;-113.674;2023-12-20T08:56:13;92687.72;;;-3.52;84.75
64687;BME280;51113;53.646;-113.674;2023-12-20T08:58:42;92685.56;;;-3.55;85.00
64687;BME280;51113;53.646;-113.674;2023-12-20T09:01:11;92686.34;;;-3.54;85.59
64687;BME280;51113;53.646;-113.674;2023-12-20T09:03:40;92687.53;;;-3.57;85.73
64687;BME280;51113;53.646;-113.674;2023-12-20T09:06:09;92677.38;;;-3.57;85.23
64687;BME280;51113;53.646;-113.674;2023-12-20T09:08:38;92671.94;;;-3.61;85.06
64687;BME280;51113;53.646;-113.674;2023-12-20T09:11:07;92673.50;;;-3.60;85.39
64687;BME280;51113;53.646;-113.674;2023-12-20T09:13:36;92667.06;;;-3.62;85.83
64687;BME280;51113;53.646;-113.674;2023-12-20T09:16:05;92670.56;;;-3.63;85.24
64687;BME280;51113;53.646;-113.674;2023-12-20T09:18:34;92675.66;;;-3.63;85.36
64687;BME280;51113;53.646;-113.674;2023-12-20T09:21:03;92670.78;;;-3.65;85.16
64687;BME280;51113;53.646;-113.674;2023-12-20T09:23:32;92671.56;;;-3.64;85.76
64687;BME280;51113;53.646;-113.674;2023-12-20T09:26:00;92670.00;;;-3.65;86.19
64687;BME280;51113;53.646;-113.674;2023-12-20T09:28:29;92663.75;;;-3.63;85.07
64687;BME280;51113;53.646;-113.674;2023-12-20T09:30:58;92659.06;;;-3.66;85.08
64687;BME280;51113;53.646;-113.674;2023-12-20T09:33:26;92655.19;;;-3.75;85.56
64687;BME280;51113;53.646;-113.674;2023-12-20T09:35:55;92670.38;;;-3.68;85.13
64687;BME280;51113;53.646;-113.674;2023-12-20T09:38:24;92666.28;;;-3.69;85.39
64687;BME280;51113;53.646;-113.674;2023-12-20T09:40:53;92668.84;;;-3.76;85.85
64687;BME280;51113;53.646;-113.674;2023-12-20T09:43:24;92678.41;;;-3.71;85.66
64687;BME280;51113;53.646;-113.674;2023-12-20T09:45:54;92674.50;;;-3.74;85.57
64687;BME280;51113;53.646;-113.674;2023-12-20T09:48:27;92670.41;;;-3.81;86.00
64687;BME280;51113;53.646;-113.674;2023-12-20T09:50:57;92667.47;;;-3.78;85.66
64687;BME280;51113;53.646;-113.674;2023-12-20T09:53:26;92673.53;;;-3.79;85.78
64687;BME280;51113;53.646;-113.674;2023-12-20T09:56:00;92668.66;;;-3.74;85.75
64687;BME280;51113;53.646;-113.674;2023-12-20T09:58:30;92672.16;;;-3.75;85.85
64687;BME280;51113;53.646;-113.674;2023-12-20T10:00:59;92681.72;;;-3.77;86.49
64687;BME280;51113;53.646;-113.674;2023-12-20T10:03:28;92681.72;;;-3.77;86.50
64687;BME280;51113;53.646;-113.674;2023-12-20T10:05:59;92678.22;;;-3.76;86.92
64687;BME280;51113;53.646;-113.674;2023-12-20T10:08:29;92687.56;;;-3.77;87.08
64687;BME280;51113;53.646;-113.674;2023-12-20T10:10:58;92690.88;;;-3.76;86.65
64687;BME280;51113;53.646;-113.674;2023-12-20T10:13:30;92685.03;;;-3.77;86.79
64687;BME280;51113;53.646;-113.674;2023-12-20T10:15:59;92692.66;;;-3.83;86.85
64687;BME280;51113;53.646;-113.674;2023-12-20T10:18:29;92703.19;;;-3.80;87.37
64687;BME280;51113;53.646;-113.674;2023-12-20T10:21:06;92692.44;;;-3.82;87.20
64687;BME280;51113;53.646;-113.674;2023-12-20T10:23:41;92679.38;;;-3.85;87.13
64687;BME280;51113;53.646;-113.674;2023-12-20T10:26:21;92698.31;;;-3.81;86.58
64687;BME280;51113;53.646;-113.674;2023-12-20T10:28:52;92681.34;;;-3.81;87.17
64687;BME280;51113;53.646;-113.674;2023-12-20T10:31:34;92694.22;;;-3.82;86.69
64687;BME280;51113;53.646;-113.674;2023-12-20T10:34:03;92685.06;;;-3.90;87.02
64687;BME280;51113;53.646;-113.674;2023-12-20T10:36:32;92705.53;;;-3.85;87.26
64687;BME280;51113;53.646;-113.674;2023-12-20T10:39:02;92692.44;;;-3.82;87.70
64687;BME280;51113;53.646;-113.674;2023-12-20T10:41:32;92691.09;;;-3.84;87.21
64687;BME280;51113;53.646;-113.674;2023-12-20T10:44:02;92670.22;;;-3.86;87.19
64687;BME280;51113;53.646;-113.674;2023-12-20T10:46:34;92677.63;;;-3.92;87.87
64687;BME280;51113;53.646;-113.674;2023-12-20T10:49:03;92679.41;;;-3.92;87.44
64687;BME280;51113;53.646;-113.674;2023-12-20T10:51:34;92674.72;;;-3.95;87.79
64687;BME280;51113;53.646;-113.674;2023-12-20T10:54:03;92685.25;;;-3.98;88.62
64687;BME280;51113;53.646;-113.674;2023-12-20T10:56:32;92676.66;;;-3.97;88.90
64687;BME280;51113;53.646;-113.674;2023-12-20T10:59:02;92690.72;;;-3.95;88.19
64687;BME280;51113;53.646;-113.674;2023-12-20T11:01:34;92685.44;;;-4.00;88.04
64687;BME280;51113;53.646;-113.674;2023-12-20T11:04:06;92686.81;;;-3.97;88.67
64687;BME280;51113;53.646;-113.674;2023-12-20T11:06:56;92683.31;;;-4.03;88.82
64687;BME280;51113;53.646;-113.674;2023-12-20T11:09:36;92695.59;;;-4.00;88.88
64687;BME280;51113;53.646;-113.674;2023-12-20T11:13:10;92678.63;;;-4.06;89.65
64687;BME280;51113;53.646;-113.674;2023-12-20T11:15:14;92702.59;;;-4.02;89.29
64687;BME280;51113;53.646;-113.674;2023-12-20T11:17:47;92683.31;;;-4.09;90.02
64687;BME280;51113;53.646;-113.674;2023-12-20T11:20:23;92689.75;;;-4.07;89.65
64687;BME280;51113;53.646;-113.674;2023-12-20T11:22:53;92686.03;;;-4.11;90.03
64687;BME280;51113;53.646;-113.674;2023-12-20T11:25:23;92647.06;;;-4.16;90.01
64687;BME280;51113;53.646;-113.674;2023-12-20T11:28:11;92683.91;;;-4.14;90.07
64687;BME280;51113;53.646;-113.674;2023-12-20T11:30:47;92670.63;;;-4.16;89.84
64687;BME280;51113;53.646;-113.674;2023-12-20T11:33:16;92676.69;;;-4.17;89.99
64687;BME280;51113;53.646;-113.674;2023-12-20T11:35:55;92671.22;;;-4.20;89.81
64687;BME280;51113;53.646;-113.674;2023-12-20T11:38:25;92659.34;;;-4.27;90.36
64687;BME280;51113;53.646;-113.674;2023-12-20T11:40:54;92668.69;;;-4.20;90.05
64687;BME280;51113;53.646;-113.674;2023-12-20T11:43:37;92674.53;;;-4.20;89.69
64687;BME280;51113;53.646;-113.674;2023-12-20T11:46:07;92660.69;;;-4.24;89.83
64687;BME280;51113;53.646;-113.674;2023-12-20T11:48:39;92664.41;;;-4.20;89.78
64687;BME280;51113;53.646;-113.674;2023-12-20T11:51:12;92674.34;;;-4.25;90.20
64687;BME280;51113;53.646;-113.674;2023-12-20T11:53:41;92673.56;;;-4.26;89.97
64687;BME280;51113;53.646;-113.674;2023-12-20T11:56:13;92684.09;;;-4.22;90.27
64687;BME280;51113;53.646;-113.674;2023-12-20T11:58:42;92674.72;;;-4.21;90.26
64687;BME280;51113;53.646;-113.674;2023-12-20T12:01:13;92674.53;;;-4.20;89.99
64687;BME280;51113;53.646;-113.674;2023-12-20T12:03:42;92668.88;;;-4.22;90.10
64687;BME280;51113;53.646;-113.674;2023-12-20T12:06:11;92665.56;;;-4.29;91.25
64687;BME280;51113;53.646;-113.674;2023-12-20T12:08:41;92666.94;;;-4.27;90.94
64687;BME280;51113;53.646;-113.674;2023-12-20T12:11:10;92677.06;;;-4.27;91.07
64687;BME280;51113;53.646;-113.674;2023-12-20T12:13:39;92680.38;;;-4.26;90.99
64687;BME280;51113;53.646;-113.674;2023-12-20T12:16:08;92680.59;;;-4.21;91.47
64687;BME280;51113;53.646;-113.674;2023-12-20T12:18:38;92674.72;;;-4.21;91.29
64687;BME280;51113;53.646;-113.674;2023-12-20T12:21:10;92673.94;;;-4.22;91.43
64687;BME280;51113;53.646;-113.674;2023-12-20T12:23:44;92668.09;;;-4.22;91.84
64687;BME280;51113;53.646;-113.674;2023-12-20T12:26:13;92674.34;;;-4.25;91.40
64687;BME280;51113;53.646;-113.674;2023-12-20T12:28:42;92663.22;;;-4.31;92.14
64687;BME280;51113;53.646;-113.674;2023-12-20T12:31:14;92666.34;;;-4.22;92.40
64687;BME280;51113;53.646;-113.674;2023-12-20T12:33:46;92657.00;;;-4.28;92.07
64687;BME280;51113;53.646;-113.674;2023-12-20T12:36:16;92666.34;;;-4.29;92.61
64687;BME280;51113;53.646;-113.674;2023-12-20T12:38:45;92666.94;;;-4.27;92.27
64687;BME280;51113;53.646;-113.674;2023-12-20T12:41:14;92677.47;;;-4.23;91.94
64687;BME280;51113;53.646;-113.674;2023-12-20T12:43:43;92663.03;;;-4.29;92.23